GB-0599 weather

Bagber Farm Airstrip
England, United Kingdom

Public forecast

Using degrees Celsius for public forecast. Weather courtesy of forecast.io.

METAR (pilot weather report)

Closest report is Bournemouth Airport, 16.1 nm (29.8 km) E. Retrieved 2019/09/22 12:20 UTC (38 minutes ago):

EGHH 221220Z 20011KT 9999 FEW007 SCT010 BKN020 18/16 Q1003

TAF (pilot weather forecast)

Forecast is more than 12 hours old.

Closest forecast is Bournemouth Airport, 16.1 nm (29.8 km) E. Retrieved 2013/12/01 21:21 UTC (6 years ago):

TAF TAF EGHH 010016Z 3021/0106 CNL